createdAt,value
2018-09-12T04:01:00.357Z,2.80
2018-09-12T04:02:00.229Z,6.70
2018-09-12T04:03:52.937Z,6.30
2018-09-12T04:04:52.814Z,6.80
2018-09-12T04:06:45.511Z,6.50
2018-09-12T04:07:45.392Z,6.40
2018-09-12T04:09:38.073Z,6.20
2018-09-12T04:10:37.969Z,6.50
2018-09-12T04:12:30.669Z,7.00
2018-09-12T04:13:30.549Z,6.60
2018-09-12T04:15:23.221Z,6.90
2018-09-12T04:16:23.127Z,6.70
2018-09-12T04:18:15.816Z,7.30
2018-09-12T04:19:15.695Z,6.80
2018-09-12T04:21:08.379Z,6.80
2018-09-12T04:22:08.277Z,6.40
2018-09-12T04:24:00.967Z,7.10
2018-09-12T04:25:00.845Z,6.80
2018-09-12T04:26:53.541Z,6.70
2018-09-12T04:27:53.424Z,6.90
2018-09-12T04:29:46.109Z,6.30
2018-09-12T04:30:46.001Z,6.80
2018-09-12T04:32:38.697Z,6.90
2018-09-12T04:33:38.580Z,6.50
2018-09-12T04:35:31.262Z,6.40
2018-09-12T04:36:31.157Z,6.70
2018-09-12T04:38:23.856Z,6.80
2018-09-12T04:39:23.735Z,6.60
2018-09-12T04:41:16.446Z,6.70
2018-09-12T04:42:16.320Z,7.20
2018-09-12T04:44:09.000Z,7.20
2018-09-12T04:45:08.897Z,6.70
2018-09-12T04:47:01.595Z,7.10
2018-09-12T04:48:01.470Z,6.90
2018-09-12T04:49:54.152Z,7.40
2018-09-12T04:50:54.051Z,6.60
2018-09-12T04:52:46.762Z,7.00
2018-09-12T04:53:46.740Z,7.70
2018-09-12T04:55:39.537Z,7.60
2018-09-12T04:56:39.207Z,7.20
2018-09-12T04:58:31.980Z,7.40
2018-09-12T04:59:31.792Z,7.40
2018-09-12T05:01:24.477Z,7.90
2018-09-12T05:02:24.359Z,7.00
2018-09-12T05:04:17.041Z,8.30
2018-09-12T05:05:16.938Z,8.60
2018-09-12T05:07:09.640Z,8.40
2018-09-12T05:08:09.510Z,8.10
2018-09-12T05:10:02.308Z,8.30
2018-09-12T05:11:02.095Z,8.40
2018-09-12T05:12:54.783Z,9.10
2018-09-12T05:13:54.656Z,8.80
2018-09-12T05:15:47.345Z,9.00
2018-09-12T05:16:47.316Z,8.30
2018-09-12T05:18:39.931Z,8.30
2018-09-12T05:19:39.816Z,8.20
2018-09-12T05:21:32.508Z,8.70
2018-09-12T05:22:32.381Z,8.20
2018-09-12T05:24:25.063Z,9.20
2018-09-12T05:25:24.960Z,9.50
2018-09-12T05:27:17.655Z,9.90
2018-09-12T05:28:17.536Z,10.30
2018-09-12T05:30:10.223Z,10.70
2018-09-12T05:31:10.123Z,10.50
2018-09-12T05:33:02.811Z,11.70
2018-09-12T05:34:02.690Z,12.00
2018-09-12T05:35:55.374Z,11.10
2018-09-12T05:36:55.265Z,12.00
2018-09-12T05:38:47.964Z,13.40
2018-09-12T05:39:47.850Z,13.00
2018-09-12T05:41:40.552Z,12.20
2018-09-12T05:42:40.426Z,12.80
2018-09-12T05:44:33.106Z,12.70
2018-09-12T05:45:32.999Z,12.50
2018-09-12T05:47:25.701Z,12.70
2018-09-12T05:48:25.582Z,12.50
2018-09-12T05:50:18.310Z,12.60
2018-09-12T05:51:18.160Z,12.40
2018-09-12T05:53:10.854Z,11.70
2018-09-12T05:54:10.731Z,11.50
2018-09-12T05:56:03.415Z,11.70
2018-09-12T05:57:03.308Z,12.30
2018-09-12T05:58:55.997Z,11.90
2018-09-12T05:59:55.879Z,10.60
2018-09-12T06:01:48.576Z,10.60
2018-09-12T06:02:48.461Z,10.60
2018-09-12T06:04:41.146Z,11.00
2018-09-12T06:05:41.043Z,11.30
2018-09-12T06:07:33.737Z,10.80
2018-09-12T06:08:33.622Z,10.90
2018-09-12T06:10:26.291Z,11.60
2018-09-12T06:11:26.192Z,11.80
2018-09-12T06:13:18.885Z,10.90
2018-09-12T06:14:18.769Z,11.50
2018-09-12T06:16:11.458Z,11.00
2018-09-12T06:17:11.346Z,11.10
2018-09-12T06:19:04.042Z,11.20
2018-09-12T06:20:03.922Z,11.30
2018-09-12T06:21:56.615Z,11.60
2018-09-12T06:22:56.492Z,11.50
2018-09-12T06:24:49.173Z,11.10
2018-09-12T06:25:49.070Z,11.90
2018-09-12T06:27:41.766Z,11.10
2018-09-12T06:28:41.642Z,12.00
2018-09-12T06:30:34.324Z,11.80
2018-09-12T06:31:34.222Z,11.80
2018-09-12T06:33:26.925Z,11.80
2018-09-12T06:34:26.808Z,11.60
2018-09-12T06:36:19.480Z,11.30
2018-09-12T06:37:19.382Z,10.70
2018-09-12T06:39:12.078Z,11.20
2018-09-12T06:40:11.965Z,11.80
2018-09-12T06:42:04.655Z,10.80
2018-09-12T06:43:04.534Z,11.10
2018-09-12T06:44:57.220Z,11.20
2018-09-12T06:45:57.110Z,11.30
2018-09-12T06:47:49.810Z,10.80
2018-09-12T06:48:49.685Z,21.40
2018-09-12T06:50:42.370Z,11.40
2018-09-12T06:51:42.263Z,11.10
2018-09-12T06:53:34.961Z,12.00
2018-09-12T06:54:34.890Z,12.20
2018-09-12T06:56:27.539Z,11.90
2018-09-12T06:57:27.417Z,11.40
2018-09-12T06:59:20.094Z,12.70
2018-09-12T07:00:19.993Z,11.80
2018-09-12T07:02:12.689Z,11.90
2018-09-12T07:03:12.566Z,12.10
2018-09-12T07:05:05.250Z,13.00
2018-09-12T07:06:05.151Z,12.80
2018-09-12T07:07:57.837Z,12.90
2018-09-12T07:08:57.721Z,13.00
2018-09-12T07:10:50.398Z,13.80
2018-09-12T07:11:50.300Z,12.30
2018-09-12T07:13:42.993Z,12.30
2018-09-12T07:14:42.873Z,12.50
2018-09-12T07:16:35.575Z,12.50
2018-09-12T07:17:35.455Z,13.50
2018-09-12T07:19:28.138Z,13.00
2018-09-12T07:20:28.036Z,12.60
2018-09-12T07:22:20.734Z,12.50
2018-09-12T07:23:20.623Z,13.00
2018-09-12T07:25:13.796Z,12.90
2018-09-12T07:26:13.695Z,12.80
2018-09-12T07:28:06.521Z,12.80
2018-09-12T07:29:06.571Z,13.80
2018-09-12T07:30:58.951Z,13.10
2018-09-12T07:31:58.855Z,12.90
2018-09-12T07:33:52.049Z,12.60
2018-09-12T07:34:51.934Z,12.60
2018-09-12T07:36:45.126Z,12.00
2018-09-12T07:37:45.007Z,11.60
2018-09-12T07:39:37.700Z,11.90
2018-09-12T07:40:37.598Z,11.90
2018-09-12T07:42:30.294Z,11.20
2018-09-12T07:43:30.184Z,11.60
2018-09-12T07:45:22.867Z,10.20
2018-09-12T07:46:22.765Z,10.90
2018-09-12T07:48:16.030Z,10.70
2018-09-12T07:49:15.917Z,11.20
2018-09-12T07:51:09.106Z,10.00
2018-09-12T07:52:08.996Z,10.10
2018-09-12T07:54:02.199Z,10.20
2018-09-12T07:55:02.134Z,9.80
2018-09-12T07:56:54.781Z,9.30
2018-09-12T07:57:54.666Z,9.90
2018-09-12T07:59:47.353Z,10.00
2018-09-12T08:00:47.250Z,9.90
2018-09-12T08:02:39.950Z,9.60
2018-09-12T08:03:39.840Z,10.00
2018-09-12T08:05:32.521Z,8.50
2018-09-12T08:06:32.429Z,8.90
2018-09-12T08:08:25.617Z,9.90
2018-09-12T08:09:25.504Z,9.00
2018-09-12T08:11:18.190Z,8.60
2018-09-12T08:12:18.095Z,9.00
2018-09-12T08:14:10.786Z,9.00
2018-09-12T08:15:10.672Z,8.90
2018-09-12T08:17:03.933Z,9.20
2018-09-12T08:18:03.748Z,8.90
2018-09-12T08:19:56.428Z,8.70
2018-09-12T08:20:56.330Z,8.50
2018-09-12T08:22:49.525Z,9.40
2018-09-12T08:23:49.406Z,9.20
2018-09-12T08:25:42.089Z,8.10
2018-09-12T08:26:42.002Z,8.30
2018-09-12T08:28:34.692Z,8.60
2018-09-12T08:29:34.577Z,9.10
2018-09-12T08:31:27.268Z,8.80
2018-09-12T08:32:27.167Z,9.10
2018-09-12T08:34:20.355Z,8.80
2018-09-12T08:35:20.237Z,8.40
2018-09-12T08:37:12.941Z,7.90
2018-09-12T08:38:12.826Z,8.30
2018-09-12T08:40:06.018Z,7.80
2018-09-12T08:41:05.918Z,7.80
2018-09-12T08:42:59.122Z,7.90
2018-09-12T08:43:59.006Z,7.00
2018-09-12T08:45:51.688Z,6.70
2018-09-12T08:46:51.585Z,7.30
2018-09-12T08:48:44.291Z,7.00
2018-09-12T08:49:44.175Z,7.30
2018-09-12T08:51:36.882Z,7.30
2018-09-12T08:52:36.771Z,7.20
2018-09-12T08:54:29.449Z,6.40
2018-09-12T08:55:29.348Z,7.40
2018-09-12T08:57:22.055Z,7.30
2018-09-12T08:58:21.941Z,7.30
2018-09-12T09:00:15.125Z,6.90
2018-09-12T09:01:15.077Z,7.40
2018-09-12T09:03:07.719Z,6.70
2018-09-12T09:04:07.658Z,6.60
2018-09-12T09:06:00.293Z,6.30
2018-09-12T09:07:00.190Z,6.70
2018-09-12T09:08:52.893Z,6.50
2018-09-12T09:09:52.776Z,6.60
2018-09-12T09:11:46.031Z,6.80
2018-09-12T09:12:45.917Z,6.90
2018-09-12T09:14:38.596Z,6.70
2018-09-12T09:15:38.502Z,7.20
2018-09-12T09:17:31.204Z,7.40
2018-09-12T09:18:31.084Z,7.20
2018-09-12T09:20:23.766Z,7.20
2018-09-12T09:21:23.674Z,8.00
2018-09-12T09:23:16.859Z,7.80
2018-09-12T09:24:16.765Z,8.00
2018-09-12T09:26:09.428Z,7.50
2018-09-12T09:27:09.328Z,8.00
2018-09-12T09:29:02.030Z,8.40
2018-09-12T09:30:01.913Z,7.80
2018-09-12T09:31:54.621Z,8.70
2018-09-12T09:32:54.497Z,8.20
2018-09-12T09:34:47.695Z,7.60
2018-09-12T09:35:47.684Z,8.20
2018-09-12T09:37:40.767Z,8.10
2018-09-12T09:38:40.647Z,8.60
2018-09-12T09:40:33.825Z,8.00
2018-09-12T09:41:33.725Z,8.10
2018-09-12T09:43:26.567Z,7.60
2018-09-12T09:44:26.448Z,7.50
2018-09-12T09:46:19.136Z,8.10
2018-09-12T09:47:19.032Z,7.40
2018-09-12T09:49:12.231Z,7.30
2018-09-12T09:50:12.123Z,8.20
2018-09-12T09:52:04.820Z,8.60
2018-09-12T09:53:04.701Z,8.20
2018-09-12T09:54:57.409Z,8.00
2018-09-12T09:55:57.280Z,8.30
2018-09-12T09:57:50.487Z,7.10
2018-09-12T09:58:50.361Z,8.90
2018-09-12T10:00:43.053Z,8.10
2018-09-12T10:01:42.946Z,7.70
2018-09-12T10:03:35.645Z,8.20
2018-09-12T10:04:35.538Z,8.90
2018-09-12T10:06:28.218Z,8.00
2018-09-12T10:07:28.118Z,8.50
2018-09-12T10:09:20.826Z,8.50
2018-09-12T10:10:20.713Z,8.70
2018-09-12T10:12:13.912Z,9.00
2018-09-12T10:13:13.796Z,8.00
2018-09-12T10:15:06.480Z,8.90
2018-09-12T10:16:06.384Z,8.90
2018-09-12T10:17:59.576Z,8.30
2018-09-12T10:18:59.456Z,9.00
2018-09-12T10:20:52.147Z,8.70
2018-09-12T10:21:52.045Z,8.40
2018-09-12T10:23:45.242Z,8.70
2018-09-12T10:24:45.134Z,8.60
2018-09-12T10:26:37.812Z,9.60
2018-09-12T10:27:37.717Z,9.20
2018-09-12T10:29:30.418Z,6.40
2018-09-12T10:30:30.302Z,6.00
2018-09-12T10:32:22.996Z,5.20
2018-09-12T10:33:22.887Z,5.10
2018-09-12T10:35:15.563Z,4.60
2018-09-12T10:36:15.468Z,4.40
2018-09-12T10:38:08.163Z,4.30
2018-09-12T10:39:08.047Z,4.20
2018-09-12T10:41:01.239Z,3.80
2018-09-12T10:42:01.125Z,4.40
2018-09-12T10:43:53.833Z,3.80
2018-09-12T10:44:53.711Z,4.10
2018-09-12T10:46:46.388Z,4.10
2018-09-12T10:47:46.295Z,3.90
2018-09-12T10:49:38.985Z,3.40
2018-09-12T10:50:38.871Z,3.30
2018-09-12T10:52:31.573Z,3.50
2018-09-12T10:53:31.453Z,3.60
2018-09-12T10:55:24.134Z,3.10
2018-09-12T10:56:24.026Z,3.10
2018-09-12T10:58:16.721Z,3.30
2018-09-12T10:59:16.605Z,3.00
2018-09-12T11:01:09.288Z,3.00
2018-09-12T11:02:09.186Z,3.10
2018-09-12T11:04:01.879Z,3.10
2018-09-12T11:05:01.765Z,3.20
2018-09-12T11:06:54.511Z,3.40
2018-09-12T11:07:54.390Z,3.20
2018-09-12T11:09:47.122Z,3.00
2018-09-12T11:10:46.958Z,2.90
2018-09-12T11:12:39.671Z,2.80
2018-09-12T11:13:39.521Z,2.80
2018-09-12T11:15:32.238Z,2.80
2018-09-12T11:16:32.111Z,2.60
2018-09-12T11:18:24.810Z,2.70
2018-09-12T11:19:24.687Z,2.50
2018-09-12T11:21:17.374Z,2.90
2018-09-12T11:22:17.264Z,2.40
2018-09-12T11:24:09.968Z,2.60
2018-09-12T11:25:09.848Z,2.60
2018-09-12T11:27:02.533Z,2.10
2018-09-12T11:28:02.432Z,2.00
2018-09-12T11:29:55.136Z,2.10
2018-09-12T11:30:55.017Z,2.20
2018-09-12T11:32:47.710Z,2.20
2018-09-12T11:33:47.588Z,2.40
2018-09-12T11:35:40.278Z,1.90
2018-09-12T11:36:40.175Z,2.10
2018-09-12T11:38:32.872Z,1.90
2018-09-12T11:39:32.757Z,1.70
2018-09-12T11:41:25.449Z,1.80
2018-09-12T11:42:25.350Z,2.00
2018-09-12T11:44:18.053Z,1.60
2018-09-12T11:45:17.931Z,1.50
2018-09-12T11:47:10.630Z,1.50
2018-09-12T11:48:10.506Z,1.50
2018-09-12T11:50:03.190Z,1.60
2018-09-12T11:51:03.093Z,1.80
2018-09-12T11:52:55.789Z,1.80
2018-09-12T11:53:55.673Z,1.70
2018-09-12T11:55:48.354Z,2.00
2018-09-12T11:56:48.259Z,2.00
2018-09-12T11:58:41.144Z,2.20
2018-09-12T11:59:41.056Z,2.60
2018-09-12T12:01:33.787Z,2.70
2018-09-12T12:02:33.658Z,2.50
2018-09-12T12:04:26.361Z,2.70
2018-09-12T12:05:26.241Z,2.50
2018-09-12T12:07:18.940Z,2.70
2018-09-12T12:08:18.818Z,2.60
2018-09-12T12:10:11.554Z,2.60
2018-09-12T12:11:11.391Z,2.50
2018-09-12T12:13:04.089Z,2.70
2018-09-12T12:14:04.101Z,2.90
2018-09-12T12:15:56.704Z,2.70
2018-09-12T12:16:56.616Z,2.70
2018-09-12T12:18:49.340Z,2.70
2018-09-12T12:19:49.196Z,2.40
2018-09-12T12:21:41.949Z,2.50
2018-09-12T12:22:41.812Z,2.80
2018-09-12T12:24:34.558Z,3.20
2018-09-12T12:25:34.423Z,3.10
2018-09-12T12:27:27.129Z,3.20
2018-09-12T12:28:27.100Z,3.10
2018-09-12T12:30:19.655Z,3.50
2018-09-12T12:31:19.536Z,3.90
2018-09-12T12:33:12.266Z,3.70
2018-09-12T12:34:12.111Z,3.40
2018-09-12T12:36:04.832Z,4.40
2018-09-12T12:37:04.830Z,4.10
2018-09-12T12:38:57.412Z,4.40
2018-09-12T12:39:57.292Z,4.30
2018-09-12T12:41:50.042Z,4.60
2018-09-12T12:42:49.900Z,4.70
2018-09-12T12:44:42.599Z,4.80
2018-09-12T12:45:42.508Z,4.70
2018-09-12T12:47:35.241Z,4.20
2018-09-12T12:48:35.088Z,4.50
2018-09-12T12:50:27.937Z,4.30
2018-09-12T12:51:27.685Z,4.70
2018-09-12T12:53:20.406Z,4.80
2018-09-12T12:54:20.265Z,4.60
2018-09-12T12:56:12.978Z,4.80
2018-09-12T12:57:12.890Z,4.70
2018-09-12T12:59:05.663Z,5.60
2018-09-12T13:00:05.505Z,5.60
2018-09-12T13:01:58.189Z,5.10
2018-09-12T13:02:58.081Z,5.00
2018-09-12T13:04:50.784Z,5.60
2018-09-12T13:05:50.659Z,5.50
2018-09-12T13:07:43.355Z,5.30
2018-09-12T13:08:43.227Z,5.10
2018-09-12T13:10:36.039Z,5.30
2018-09-12T13:11:35.806Z,4.40
2018-09-12T13:13:28.536Z,4.40
2018-09-12T13:14:28.452Z,4.40
2018-09-12T13:16:21.126Z,4.70
2018-09-12T13:17:21.039Z,4.70
2018-09-12T13:19:13.695Z,4.60
2018-09-12T13:20:13.578Z,4.90
2018-09-12T13:22:06.262Z,5.30
2018-09-12T13:23:06.151Z,4.90
2018-09-12T13:24:58.870Z,5.00
2018-09-12T13:25:58.733Z,4.50
2018-09-12T13:27:51.571Z,4.80
2018-09-12T13:28:51.347Z,4.40
2018-09-12T13:30:44.062Z,4.00
2018-09-12T13:31:43.956Z,4.60
2018-09-12T13:33:36.647Z,4.30
2018-09-12T13:34:36.541Z,4.30
2018-09-12T13:36:29.228Z,4.10
2018-09-12T13:37:29.115Z,4.70
2018-09-12T13:39:21.912Z,4.30
2018-09-12T13:40:21.770Z,4.50
2018-09-12T13:42:14.615Z,4.20
2018-09-12T13:43:14.395Z,4.40
2018-09-12T13:45:07.633Z,4.60
2018-09-12T13:46:07.496Z,3.80
2018-09-12T13:48:00.193Z,4.30
2018-09-12T13:49:00.068Z,4.20
2018-09-12T13:50:52.751Z,4.10
2018-09-12T13:51:52.638Z,4.10
2018-09-12T13:53:45.341Z,4.20
2018-09-12T13:54:45.220Z,4.00
2018-09-12T13:56:37.972Z,4.30
2018-09-12T13:57:37.789Z,4.50
2018-09-12T13:59:30.492Z,4.80
2018-09-12T14:00:30.359Z,4.90
2018-09-12T14:02:23.050Z,5.10
2018-09-12T14:03:23.001Z,4.70
2018-09-12T14:05:16.123Z,4.30
2018-09-12T14:06:16.001Z,4.80
2018-09-12T14:08:08.695Z,5.00
2018-09-12T14:09:08.570Z,4.40
2018-09-12T14:11:01.254Z,4.50
2018-09-12T14:12:01.148Z,4.40
2018-09-12T14:13:53.841Z,5.00
2018-09-12T14:14:53.716Z,4.10
2018-09-12T14:16:46.390Z,4.70
2018-09-12T14:17:46.295Z,4.80
2018-09-12T14:19:38.984Z,4.50
2018-09-12T14:20:38.862Z,4.70
2018-09-12T14:22:31.539Z,4.60
2018-09-12T14:23:31.442Z,4.50
2018-09-12T14:25:24.131Z,5.00
2018-09-12T14:26:24.017Z,4.30
2018-09-12T14:28:16.712Z,4.50
2018-09-12T14:29:16.593Z,4.30
2018-09-12T14:31:09.270Z,4.60
2018-09-12T14:32:09.175Z,4.60
2018-09-12T14:34:01.853Z,3.90
2018-09-12T14:35:01.736Z,4.80
2018-09-12T14:36:54.420Z,4.60
2018-09-12T14:37:54.609Z,4.30
2018-09-12T14:39:47.584Z,4.50
2018-09-12T14:40:47.152Z,4.30
2018-09-12T14:42:39.628Z,4.10
2018-09-12T14:43:39.517Z,4.20
2018-09-12T14:45:32.161Z,3.40
2018-09-12T14:46:32.041Z,4.00
2018-09-12T14:48:24.733Z,4.00
2018-09-12T14:49:24.619Z,3.80
2018-09-12T14:51:17.293Z,4.30
2018-09-12T14:52:17.184Z,3.70
2018-09-12T14:54:09.884Z,3.90
2018-09-12T14:55:09.767Z,3.90
2018-09-12T14:57:02.451Z,3.90
2018-09-12T14:58:02.377Z,3.70
2018-09-12T14:59:55.048Z,3.80
2018-09-12T15:00:54.928Z,3.70
2018-09-12T15:02:47.604Z,3.80
2018-09-12T15:03:47.501Z,3.40
2018-09-12T15:05:40.197Z,3.70
2018-09-12T15:06:40.074Z,3.70
2018-09-12T15:08:32.771Z,3.90
2018-09-12T15:09:32.653Z,3.80
2018-09-12T15:11:25.327Z,3.50
2018-09-12T15:12:25.226Z,3.50
2018-09-12T15:14:18.413Z,3.50
2018-09-12T15:15:18.295Z,3.30
2018-09-12T15:17:10.986Z,3.60
2018-09-12T15:18:10.871Z,3.80
2018-09-12T15:20:03.562Z,3.70
2018-09-12T15:21:03.444Z,3.70
2018-09-12T15:22:56.134Z,3.30
2018-09-12T15:23:56.035Z,3.40
2018-09-12T15:25:48.726Z,3.30
2018-09-12T15:26:48.626Z,3.20
2018-09-12T15:28:41.306Z,3.50
2018-09-12T15:29:41.189Z,3.50
2018-09-12T15:31:33.864Z,3.50
2018-09-12T15:32:33.822Z,3.30
2018-09-12T15:34:26.461Z,3.10
2018-09-12T15:35:26.339Z,2.90
2018-09-12T15:37:19.064Z,2.90
2018-09-12T15:38:18.975Z,3.20
2018-09-12T15:40:11.648Z,2.80
2018-09-12T15:41:11.533Z,2.90
2018-09-12T15:43:04.206Z,3.10
2018-09-12T15:44:04.106Z,3.00
2018-09-12T15:45:56.798Z,2.80
2018-09-12T15:46:56.677Z,3.40
2018-09-12T15:48:49.380Z,3.10
2018-09-12T15:49:49.260Z,3.40
2018-09-12T15:51:41.937Z,3.10
2018-09-12T15:52:41.829Z,3.40
2018-09-12T15:54:34.517Z,3.50
2018-09-12T15:55:34.403Z,3.70
2018-09-12T15:57:27.077Z,3.60
2018-09-12T15:58:26.977Z,3.60
2018-09-12T16:00:19.671Z,3.70
2018-09-12T16:01:19.553Z,3.60
2018-09-12T16:03:12.233Z,3.40
2018-09-12T16:04:12.130Z,3.70
2018-09-12T16:06:05.812Z,3.50
2018-09-12T16:07:05.688Z,3.80
2018-09-12T16:08:58.376Z,3.80
2018-09-12T16:09:58.330Z,3.90
2018-09-12T16:11:50.977Z,3.90
2018-09-12T16:12:51.010Z,3.80
2018-09-12T16:14:43.564Z,3.90
2018-09-12T16:15:43.443Z,4.00
2018-09-12T16:17:36.117Z,4.10
2018-09-12T16:18:36.010Z,4.10
2018-09-12T16:20:28.706Z,4.40
2018-09-12T16:21:28.684Z,4.00
2018-09-12T16:23:21.265Z,3.90
2018-09-12T16:24:21.155Z,4.50
2018-09-12T16:26:13.911Z,4.20
2018-09-12T16:27:13.793Z,4.20
2018-09-12T16:29:06.492Z,4.60
2018-09-12T16:30:06.365Z,4.30
2018-09-12T16:31:59.045Z,4.40
2018-09-12T16:32:59.020Z,4.30
2018-09-12T16:34:51.636Z,4.30
2018-09-12T16:35:51.506Z,4.20
2018-09-12T16:37:44.194Z,4.60
2018-09-12T16:38:44.086Z,4.40
2018-09-12T16:40:36.783Z,4.60
2018-09-12T16:41:36.657Z,3.90
2018-09-12T16:43:29.830Z,3.80
2018-09-12T16:44:29.730Z,4.20
2018-09-12T16:46:22.424Z,4.30
2018-09-12T16:47:22.311Z,3.90
2018-09-12T16:49:14.996Z,4.00
2018-09-12T16:50:14.868Z,4.60
2018-09-12T16:52:07.558Z,4.20
2018-09-12T16:53:07.450Z,4.10
2018-09-12T16:55:00.146Z,4.20
2018-09-12T16:56:00.021Z,3.80
2018-09-12T16:57:52.701Z,3.90
2018-09-12T16:58:52.602Z,4.00
2018-09-12T17:00:45.305Z,4.50
2018-09-12T17:01:45.179Z,4.60
2018-09-12T17:03:37.860Z,5.80
2018-09-12T17:04:37.758Z,5.70
2018-09-12T17:06:30.442Z,4.70
2018-09-12T17:07:30.324Z,4.60
2018-09-12T17:09:23.013Z,4.60
2018-09-12T17:10:22.896Z,4.70
2018-09-12T17:12:15.603Z,4.80
2018-09-12T17:13:15.499Z,5.00
2018-09-12T17:15:08.186Z,4.60
2018-09-12T17:16:08.069Z,5.00
2018-09-12T17:18:00.743Z,4.70
2018-09-12T17:19:00.635Z,4.50
2018-09-12T17:20:53.324Z,5.00
2018-09-12T17:21:53.208Z,5.00
2018-09-12T17:23:45.896Z,4.60
2018-09-12T17:24:45.770Z,4.80
2018-09-12T17:26:38.452Z,4.70
2018-09-12T17:27:38.344Z,4.70
2018-09-12T17:29:31.039Z,5.10
2018-09-12T17:30:30.922Z,4.80
2018-09-12T17:32:23.652Z,5.10
2018-09-12T17:33:23.493Z,5.10
2018-09-12T17:35:16.182Z,4.50
2018-09-12T17:36:16.064Z,4.50
2018-09-12T17:38:08.781Z,4.70
2018-09-12T17:39:08.630Z,5.20
2018-09-12T17:41:01.542Z,4.70
2018-09-12T17:42:01.221Z,5.00
2018-09-12T17:43:53.940Z,5.00
2018-09-12T17:44:53.777Z,5.30
2018-09-12T17:46:46.506Z,5.10
2018-09-12T17:47:46.406Z,5.20
2018-09-12T17:49:39.628Z,5.80
2018-09-12T17:50:39.471Z,5.00
2018-09-12T17:52:32.145Z,5.20
2018-09-12T17:53:32.038Z,4.90
2018-09-12T17:55:24.746Z,4.70
2018-09-12T17:56:24.620Z,4.80
2018-09-12T17:58:17.294Z,4.90
2018-09-12T17:59:17.189Z,5.40
2018-09-12T18:01:09.887Z,5.20
2018-09-12T18:02:09.761Z,4.70
2018-09-12T18:04:02.463Z,4.50
2018-09-12T18:05:02.341Z,4.10
2018-09-12T18:06:55.016Z,4.20
2018-09-12T18:07:54.908Z,4.10
2018-09-12T18:09:47.641Z,3.80
2018-09-12T18:10:47.540Z,3.70
2018-09-12T18:12:40.157Z,3.50
2018-09-12T18:13:40.054Z,3.80
2018-09-12T18:15:32.790Z,3.50
2018-09-12T18:16:32.624Z,3.40
2018-09-12T18:18:25.302Z,3.60
2018-09-12T18:19:25.219Z,3.00
2018-09-12T18:21:17.891Z,3.40
2018-09-12T18:22:17.762Z,3.40
2018-09-12T18:24:10.467Z,3.30
2018-09-12T18:25:10.343Z,3.00
2018-09-12T18:27:03.015Z,3.00
2018-09-12T18:28:02.912Z,3.00
2018-09-12T18:29:55.609Z,3.00
2018-09-12T18:30:55.671Z,3.10
2018-09-12T18:32:48.169Z,2.90
2018-09-12T18:33:48.210Z,2.80
2018-09-12T18:35:40.753Z,3.00
2018-09-12T18:36:40.654Z,3.20
2018-09-12T18:38:33.315Z,2.70
2018-09-12T18:39:33.221Z,3.20
2018-09-12T18:41:25.938Z,2.70
2018-09-12T18:42:25.781Z,2.90
2018-09-12T18:44:18.716Z,3.30
2018-09-12T18:45:18.425Z,2.80
2018-09-12T18:47:11.031Z,2.80
2018-09-12T18:48:10.919Z,3.00
2018-09-12T18:50:03.620Z,3.10
2018-09-12T18:51:03.505Z,2.90
2018-09-12T18:52:56.189Z,2.60
2018-09-12T18:53:56.129Z,2.90
2018-09-12T18:55:48.760Z,3.00
2018-09-12T18:56:48.639Z,2.80
2018-09-12T18:58:41.315Z,2.80
2018-09-12T18:59:41.209Z,3.10
2018-09-12T19:01:33.898Z,3.00
2018-09-12T19:02:33.778Z,3.00
2018-09-12T19:04:26.465Z,2.80
2018-09-12T19:05:26.361Z,2.90
2018-09-12T19:07:19.102Z,2.80
2018-09-12T19:08:18.940Z,2.90
2018-09-12T19:10:11.772Z,2.60
2018-09-12T19:11:11.514Z,3.10
2018-09-12T19:13:04.199Z,3.10
2018-09-12T19:14:04.082Z,2.80
2018-09-12T19:15:56.768Z,3.20
2018-09-12T19:16:56.650Z,2.70
2018-09-12T19:18:49.480Z,3.00
2018-09-12T19:19:49.255Z,3.10
2018-09-12T19:21:41.911Z,2.80
2018-09-12T19:22:41.784Z,3.20
2018-09-12T19:24:34.469Z,2.90
2018-09-12T19:25:34.357Z,3.10
2018-09-12T19:27:27.048Z,3.30
2018-09-12T19:28:26.929Z,3.00
2018-09-12T19:30:19.637Z,3.10
2018-09-12T19:31:19.500Z,3.50
2018-09-12T19:33:12.177Z,3.40
2018-09-12T19:34:12.071Z,3.30
2018-09-12T19:36:04.864Z,3.90
2018-09-12T19:37:04.649Z,3.30
2018-09-12T19:38:57.319Z,3.30
2018-09-12T19:39:57.210Z,3.50
2018-09-12T19:41:49.933Z,3.60
2018-09-12T19:42:49.776Z,3.70
2018-09-12T19:44:42.468Z,3.50
2018-09-12T19:45:42.354Z,3.90
2018-09-12T19:47:35.024Z,3.70
2018-09-12T19:48:35.180Z,3.10
2018-09-12T19:50:27.881Z,3.30
2018-09-12T19:51:27.681Z,3.50
2018-09-12T19:53:20.356Z,3.60
2018-09-12T19:54:20.246Z,3.50
2018-09-12T19:56:12.936Z,3.50
2018-09-12T19:57:12.811Z,3.20
2018-09-12T19:59:05.501Z,3.70
2018-09-12T20:00:05.396Z,3.50
2018-09-12T20:01:58.091Z,3.40
2018-09-12T20:02:57.966Z,3.50
2018-09-12T20:04:50.667Z,3.70
2018-09-12T20:05:50.539Z,3.00
2018-09-12T20:07:43.222Z,3.10
2018-09-12T20:08:43.112Z,2.90
2018-09-12T20:10:35.820Z,2.90
2018-09-12T20:11:35.688Z,2.90
2018-09-12T20:13:28.362Z,2.70
2018-09-12T20:14:28.371Z,2.80
2018-09-12T20:16:20.950Z,2.60
2018-09-12T20:17:20.826Z,2.80
2018-09-12T20:19:13.498Z,2.60
2018-09-12T20:20:13.393Z,2.70
2018-09-12T20:22:06.092Z,2.80
2018-09-12T20:23:05.976Z,2.90
2018-09-12T20:24:58.789Z,2.80
2018-09-12T20:25:58.547Z,2.70
2018-09-12T20:27:51.267Z,2.10
2018-09-12T20:28:51.166Z,2.40
2018-09-12T20:30:43.863Z,2.40
2018-09-12T20:31:43.741Z,2.40
2018-09-12T20:33:36.413Z,2.50
2018-09-12T20:34:36.303Z,2.70
2018-09-12T20:36:29.173Z,2.50
2018-09-12T20:37:28.929Z,2.50
2018-09-12T20:39:21.551Z,2.30
2018-09-12T20:40:21.444Z,2.40
2018-09-12T20:42:14.631Z,2.50
2018-09-12T20:43:14.504Z,2.10
2018-09-12T20:45:07.196Z,2.50
2018-09-12T20:46:07.079Z,2.20
2018-09-12T20:47:59.905Z,2.20
2018-09-12T20:48:59.662Z,2.30
2018-09-12T20:50:52.355Z,2.40
2018-09-12T20:51:52.232Z,2.40
2018-09-12T20:53:44.907Z,2.50
2018-09-12T20:54:44.797Z,2.50
2018-09-12T20:56:37.489Z,2.70
2018-09-12T20:57:37.374Z,2.50
2018-09-12T20:59:30.039Z,2.80
2018-09-12T21:00:29.938Z,2.20
2018-09-12T21:02:22.629Z,2.40
2018-09-12T21:03:22.499Z,2.30
2018-09-12T21:05:15.196Z,2.30
2018-09-12T21:06:15.265Z,2.30
2018-09-12T21:08:07.752Z,2.20
2018-09-12T21:09:07.647Z,2.30
2018-09-12T21:11:00.390Z,2.30
2018-09-12T21:12:00.206Z,2.20
2018-09-12T21:13:52.882Z,2.40
2018-09-12T21:14:52.768Z,2.40
2018-09-12T21:16:45.468Z,2.00
2018-09-12T21:17:45.349Z,2.30
2018-09-12T21:19:38.517Z,1.90
2018-09-12T21:20:38.413Z,2.30
2018-09-12T21:22:31.097Z,2.20
2018-09-12T21:23:30.980Z,2.00
2018-09-12T21:25:23.669Z,2.10
2018-09-12T21:26:23.541Z,2.00
2018-09-12T21:28:16.214Z,1.90
2018-09-12T21:29:16.111Z,1.90
2018-09-12T21:31:08.804Z,1.70
2018-09-12T21:32:08.682Z,2.40
2018-09-12T21:34:01.850Z,1.90
2018-09-12T21:35:01.743Z,2.20
2018-09-12T21:36:54.433Z,2.40
2018-09-12T21:37:54.315Z,2.10
2018-09-12T21:39:46.985Z,2.10
2018-09-12T21:40:46.885Z,2.10
2018-09-12T21:42:39.573Z,2.40
2018-09-12T21:43:39.452Z,2.40
2018-09-12T21:45:32.144Z,2.50
2018-09-12T21:46:32.014Z,2.40
2018-09-12T21:48:24.692Z,2.40
2018-09-12T21:49:24.581Z,2.60
2018-09-12T21:51:17.273Z,2.80
2018-09-12T21:52:17.157Z,2.40
2018-09-12T21:54:10.317Z,2.80
2018-09-12T21:55:10.207Z,2.70
2018-09-12T21:57:02.906Z,2.60
2018-09-12T21:58:02.784Z,2.60
2018-09-12T21:59:55.471Z,2.50
